European Causeway — C6RG7 — position and weather

sailwx.info

Track history (hours):
 
Tides and Currents Weather Stations Pressure Air Temp Water Temp Dewpoint Dewpoint Depression Visibility Wind Speed Wind Dir Waves Ship Positions

European Causeway

Operator: P & O Irish Sea

Last reported at 2015-Mar-05 09:32 UTC. Time now 2015-Mar-05 10:30 UTC.
Position N 54°58' W 005°01'.

Length 165 m; draft 5.5 m.

Type: Ship (hazmat cat A). MMSI: 311027000.

Date/timePositionNaut miles runAvg speedWind from/ knotsBaromVisibWave heightAir tempDewpointWater temp
2015-Mar-05 09:32N 54°58' W 005°01'1111.4
2015-Mar-05 08:33N 54°58' W 005°20'1716.7
2015-Mar-05 07:31N 54°51' W 005°48'0 0.0
2015-Mar-05 06:34N 54°51' W 005°48'6 6.3
2015-Mar-05 05:33N 54°54' W 005°38'1817.8
2015-Mar-05 04:31N 55°02' W 005°09'6 5.8
2015-Mar-05 03:27N 54°58' W 005°01'0 0.0
2015-Mar-05 02:30N 54°58' W 005°01'5 5.2
2015-Mar-05 01:29N 55°02' W 005°07'1718.0
2015-Mar-05 00:33N 54°55' W 005°34'9 8.9
2015-Mar-04 23:33N 54°51' W 005°48'0 0.0
2015-Mar-04 22:33N 54°51' W 005°48'4 4.3
2015-Mar-04 21:33N 54°53' W 005°42'1817.5
2015-Mar-04 20:31N 55°01' W 005°13'8 7.5
2015-Mar-04 19:30N 54°58' W 005°01'0 0.0
2015-Mar-04 18:33N 54°58' W 005°01'1111.3
2015-Mar-04 17:33N 54°58' W 005°21'1717.4
2015-Mar-04 16:33N 54°51' W 005°48'0 0.1
2015-Mar-04 15:33N 54°51' W 005°48'1514.7
2015-Mar-04 14:34N 54°58' W 005°26'1414.0
2015-Mar-04 13:33N 54°58' W 005°01'0 0.2
2015-Mar-04 12:31N 54°58' W 005°01'1212.4
2015-Mar-04 11:33N 54°58' W 005°22'1614.0
2015-Mar-04 10:23N 54°51' W 005°48'0 0.0
2015-Mar-04 09:33N 54°51' W 005°48'1514.7
2015-Mar-04 08:33N 54°58' W 005°25'1413.5
2015-Mar-04 07:33N 54°58' W 005°02'0 0.5
2015-Mar-04 06:32N 54°58' W 005°01'5 5.0
2015-Mar-04 05:27N 55°01' W 005°08'1617.8
2015-Mar-04 04:33N 54°55' W 005°33'9 9.1
2015-Mar-04 03:32N 54°51' W 005°48'0 0.0
2015-Mar-04 02:33N 54°51' W 005°48'3 3.2
2015-Mar-04 01:32N 54°53' W 005°43'1717.4
2015-Mar-04 00:33N 55°00' W 005°17'9 9.4
2015-Mar-03 23:33N 54°58' W 005°01'0 0.0
2015-Mar-03 22:33N 54°58' W 005°01'6 5.3
2015-Mar-03 21:20N 55°01' W 005°10'1418.0
2015-Mar-03 20:33N 54°55' W 005°32'10 9.6
2015-Mar-03 19:32N 54°51' W 005°48'0 0.0
2015-Mar-03 18:34N 54°51' W 005°48'1313.5
2015-Mar-03 17:33N 54°58' W 005°28'1514.7
2015-Mar-03 16:33N 54°58' W 005°02'1 0.7
2015-Mar-03 15:34N 54°58' W 005°01'1010.2
2015-Mar-03 14:34N 54°59' W 005°19'1817.9
2015-Mar-03 13:32N 54°51' W 005°48'0 0.0
2015-Mar-03 12:33N 54°51' W 005°48'1312.8
2015-Mar-03 11:34N 54°57' W 005°28'1514.5
2015-Mar-03 10:33N 54°59' W 005°03'2 1.8
2015-Mar-03 09:33N 54°58' W 005°01'8 8.2
2015-Mar-03 08:33N 54°60' W 005°15'2119.0
2015-Mar-03 07:28N 54°52' W 005°47'1 0.8
2015-Mar-03 06:33N 54°51' W 005°48'7 7.1
2015-Mar-03 05:33N 54°55' W 005°37'1817.0
2015-Mar-03 04:31N 55°02' W 005°09'6 6.4
2015-Mar-03 03:33N 54°58' W 005°01'0 0.0
2015-Mar-03 02:33N 54°58' W 005°01'5 4.8
2015-Mar-03 01:26N 55°01' W 005°08'1617.8
2015-Mar-03 00:33N 54°55' W 005°32'10 9.7
2015-Mar-02 23:33N 54°51' W 005°48'0 0.0
2015-Mar-02 22:32N 54°51' W 005°48'4 4.1
2015-Mar-02 21:33N 54°53' W 005°42'1817.5
2015-Mar-02 20:33N 55°00' W 005°15'8 6.9
2015-Mar-02 19:21N 54°58' W 005°01'0 0.3
2015-Mar-02 18:30N 54°58' W 005°01'1212.8
2015-Mar-02 17:32N 54°57' W 005°23'1614.1
2015-Mar-02 16:25N 54°51' W 005°48'0 0.0
2015-Mar-02 15:32N 54°51' W 005°48'1313.2
2015-Mar-02 14:34N 54°57' W 005°28'1514.3
2015-Mar-02 13:33N 54°59' W 005°03'2 2.3
2015-Mar-02 12:33N 54°58' W 005°01'1010.3
2015-Mar-02 11:32N 54°58' W 005°19'1817.8
2015-Mar-02 10:33N 54°52' W 005°47'1 1.0
2015-Mar-02 09:33N 54°51' W 005°48'1211.5
2015-Mar-02 08:34N 54°56' W 005°30'1615.0
2015-Mar-02 07:30N 54°59' W 005°03'2 2.2
2015-Mar-02 06:33N 54°58' W 005°01'5 4.8
2015-Mar-02 05:30N 55°02' W 005°07'1717.9
2015-Mar-02 04:32N 54°55' W 005°35'9 8.7
2015-Mar-02 03:33N 54°51' W 005°48'0 0.0
2015-Mar-02 02:33N 54°51' W 005°48'0 0.0
2015-Mar-02 01:33N 54°51' W 005°48'2 2.3
2015-Mar-02 00:33N 54°52' W 005°45'1818.2
2015-Mar-01 23:33N 55°00' W 005°16'9 9.3
2015-Mar-01 22:33N 54°58' W 005°01'6 5.2
2015-Mar-01 21:25N 55°02' W 005°09'1619.0
2015-Mar-01 20:33N 54°54' W 005°35'8 6.8
2015-Mar-01 19:19N 54°51' W 005°48'0 0.0
2015-Mar-01 18:32N 54°51' W 005°48'1313.9
2015-Mar-01 17:34N 54°57' W 005°27'1414.1
2015-Mar-01 16:32N 54°59' W 005°03'1 1.4
2015-Mar-01 15:34N 54°58' W 005°01'5 5.2
2015-Mar-01 14:32N 55°02' W 005°08'1817.8
2015-Mar-01 13:31N 54°54' W 005°36'8 7.8
2015-Mar-01 12:33N 54°51' W 005°48'0 0.0
2015-Mar-01 11:33N 54°51' W 005°48'0 0.0
2015-Mar-01 10:33N 54°51' W 005°48'0 0.0
2015-Mar-01 09:33N 54°51' W 005°48'1212.4
2015-Mar-01 08:34N 54°57' W 005°29'1514.6
2015-Mar-01 07:31N 54°59' W 005°03'2 1.8
2015-Mar-01 06:31N 54°58' W 005°01'0 0.0
2015-Mar-01 05:25N 54°58' W 005°01'0 0.0
2015-Mar-01 04:25N 54°58' W 005°01'0 0.0
2015-Mar-01 02:13N 54°58' W 005°01'0 0.0
2015-Mar-01 00:31N 54°58' W 005°01'0 0.0
2015-Feb-28 23:22N 54°58' W 005°01'0 0.0
2015-Feb-28 22:15N 54°58' W 005°01'5 6.9
2015-Feb-28 21:29N 55°02' W 005°07'2020.9
2015-Feb-28 20:33N 54°53' W 005°38'6 6.0
2015-Feb-28 19:33N 54°51' W 005°48'0 0.0
2015-Feb-28 18:33N 54°51' W 005°48'1413.8
2015-Feb-28 17:33N 54°58' W 005°27'1514.1
2015-Feb-28 16:31N 54°58' W 005°02'1 1.0
2015-Feb-28 15:33N 54°58' W 005°01'1010.1
2015-Feb-28 14:33N 54°58' W 005°19'1817.7
2015-Feb-28 13:31N 54°51' W 005°48'0 0.2
2015-Feb-28 12:33N 54°51' W 005°48'1312.7
2015-Feb-28 11:33N 54°57' W 005°29'1514.8
2015-Feb-28 10:31N 54°59' W 005°02'1 1.3
2015-Feb-28 09:33N 54°58' W 005°01'1010.3
2015-Feb-28 08:33N 54°60' W 005°18'1917.7
2015-Feb-28 07:30N 54°52' W 005°48'1 0.8
2015-Feb-28 06:33N 54°51' W 005°48'4 4.2
2015-Feb-28 05:33N 54°53' W 005°42'1817.8
2015-Feb-28 04:32N 55°01' W 005°13'8 5.9
2015-Feb-28 03:13N 54°58' W 005°01'0 0.0
2015-Feb-28 02:22N 54°58' W 005°01'5 5.8
2015-Feb-28 01:32N 55°02' W 005°06'1717.6
2015-Feb-28 00:33N 54°55' W 005°34'9 8.9
2015-Feb-27 23:33N 54°51' W 005°48'0 0.0
2015-Feb-27 22:32N 54°51' W 005°48'5 5.6
2015-Feb-27 21:34N 54°54' W 005°40'1717.2
2015-Feb-27 20:33N 55°01' W 005°13'8 7.2
2015-Feb-27 19:30N 54°58' W 005°01'0 0.0
2015-Feb-27 18:33N 54°58' W 005°01'1110.7
2015-Feb-27 17:33N 54°58' W 005°20'1817.4
2015-Feb-27 16:32N 54°51' W 005°48'0 0.2
2015-Feb-27 15:33N 54°51' W 005°48'1515.0
2015-Feb-27 14:33N 54°58' W 005°25'1413.8
2015-Feb-27 13:33N 54°58' W 005°01'0 0.0
2015-Feb-27 12:33N 54°58' W 005°01'1110.8
2015-Feb-27 11:33N 54°58' W 005°20'1817.4
2015-Feb-27 10:33N 54°51' W 005°48'0 0.1
2015-Feb-27 09:33N 54°51' W 005°48'1313.0
2015-Feb-27 08:33N 54°57' W 005°28'1514.4
2015-Feb-27 07:31N 54°59' W 005°02'1 1.3
2015-Feb-27 06:33N 54°58' W 005°01'5 4.9
2015-Feb-27 05:28N 55°02' W 005°08'1617.4
2015-Feb-27 04:33N 54°55' W 005°33'10 9.6
2015-Feb-27 03:33N 54°51' W 005°48'0 0.0
2015-Feb-27 02:33N 54°51' W 005°48'5 5.0
2015-Feb-27 01:31N 54°54' W 005°40'1717.4
2015-Feb-27 00:33N 55°01' W 005°14'8 8.1
2015-Feb-26 23:33N 54°58' W 005°01'0 0.0
2015-Feb-26 22:32N 54°58' W 005°01'5 5.0
2015-Feb-26 21:29N 55°02' W 005°07'1818.3
2015-Feb-26 20:32N 54°54' W 005°35'8 7.4
2015-Feb-26 19:26N 54°51' W 005°48'0 0.0
2015-Feb-26 18:33N 54°51' W 005°48'1514.7
2015-Feb-26 17:32N 54°58' W 005°25'1414.1
2015-Feb-26 16:33N 54°58' W 005°01'0 0.2
2015-Feb-26 15:33N 54°58' W 005°01'1111.4
2015-Feb-26 14:33N 54°58' W 005°20'1714.8
2015-Feb-26 13:24N 54°51' W 005°48'0 0.0
2015-Feb-26 12:33N 54°51' W 005°48'1414.2
2015-Feb-26 11:33N 54°58' W 005°26'1413.8
2015-Feb-26 10:31N 54°58' W 005°01'0 0.3
2015-Feb-26 09:31N 54°58' W 005°01'1212.1
2015-Feb-26 08:33N 54°58' W 005°21'1716.8
2015-Feb-26 07:33N 54°51' W 005°48'0 0.1
2015-Feb-26 06:32N 54°51' W 005°48'8 7.6
2015-Feb-26 05:33N 54°55' W 005°37'1717.3
2015-Feb-26 04:33N 55°02' W 005°09'6 6.1
2015-Feb-26 03:32N 54°58' W 005°01'0 0.0
2015-Feb-26 02:31N 54°58' W 005°01'5 4.9
2015-Feb-26 01:24N 55°01' W 005°08'1618.5
2015-Feb-26 00:32N 54°55' W 005°33'9 9.4
2015-Feb-25 23:33N 54°51' W 005°48'0 0.0
2015-Feb-25 22:32N 54°51' W 005°48'4 3.9
2015-Feb-25 21:33N 54°53' W 005°43'2410.5
2015-Feb-25 19:13N 54°58' W 005°01'0 0.0
2015-Feb-25 18:32N 54°58' W 005°01'1111.4
2015-Feb-25 17:33N 54°58' W 005°21'1716.9
2015-Feb-25 16:32N 54°51' W 005°48'0 0.1
2015-Feb-25 15:32N 54°51' W 005°48'1212.6
2015-Feb-25 14:33N 54°57' W 005°29'1515.4
2015-Feb-25 13:33N 54°59' W 005°03'2 1.6
2015-Feb-25 12:33N 54°58' W 005°01'1111.0
2015-Feb-25 11:33N 54°58' W 005°20'1817.5
2015-Feb-25 10:33N 54°51' W 005°48'0 0.1
2015-Feb-25 09:33N 54°51' W 005°48'1515.5
2015-Feb-25 08:33N 54°58' W 005°24'1411.2
2015-Feb-25 07:21N 54°58' W 005°01'0 0.0
2015-Feb-25 06:33N 54°58' W 005°01'5 5.0
2015-Feb-25 05:33N 55°02' W 005°07'1918.1
2015-Feb-25 04:30N 54°54' W 005°37'7 7.5
2015-Feb-25 03:33N 54°51' W 005°48'0 0.0
2015-Feb-25 02:33N 54°51' W 005°48'8 7.6
2015-Feb-25 01:31N 54°55' W 005°36'1717.6
2015-Feb-25 00:34N 55°02' W 005°09'6 6.2
2015-Feb-24 23:32N 54°58' W 005°01'0 0.0
2015-Feb-24 22:30N 54°58' W 005°01'6 6.3
2015-Feb-24 21:33N 55°01' W 005°09'1918.3
2015-Feb-24 20:33N 54°54' W 005°38'6 3.1
2015-Feb-24 18:33N 54°51' W 005°48'1514.7
2015-Feb-24 17:32N 54°58' W 005°25'1413.5
2015-Feb-24 16:31N 54°58' W 005°01'0 0.1
2015-Feb-24 15:26N 54°58' W 005°01'1112.2
2015-Feb-24 14:32N 54°58' W 005°20'1717.9
2015-Feb-24 13:33N 54°51' W 005°48'0 0.1
2015-Feb-24 12:33N 54°51' W 005°48'1514.9
2015-Feb-24 11:33N 54°58' W 005°25'1413.4
2015-Feb-24 10:31N 54°58' W 005°01'0 0.0
2015-Feb-24 09:32N 54°58' W 005°01'1111.0
2015-Feb-24 08:33N 54°59' W 005°20'1814.7
2015-Feb-24 07:20N 54°51' W 005°48'0 0.0
2015-Feb-24 06:17N 54°51' W 005°48'1013.0
2015-Feb-24 05:33N 54°56' W 005°34'1816.0
2015-Feb-24 04:26N 54°59' W 005°03'2 2.1
2015-Feb-24 03:29N 54°58' W 005°01'0 0.0
2015-Feb-24 02:33N 54°58' W 005°01'6 6.3
2015-Feb-24 01:34N 55°02' W 005°09'1616.1
2015-Feb-24 00:33N 54°54' W 005°34'9 8.9
2015-Feb-23 23:33N 54°51' W 005°48'0 0.0
2015-Feb-23 22:30N 54°51' W 005°48'5 5.2
2015-Feb-23 21:27N 54°54' W 005°40'1819.5
2015-Feb-23 20:33N 55°01' W 005°12'7 6.8
2015-Feb-23 19:29N 54°58' W 005°01'0 0.2
2015-Feb-23 18:33N 54°58' W 005°01'1312.6
2015-Feb-23 17:33N 54°58' W 005°23'1615.2
2015-Feb-23 16:31N 54°51' W 005°48'0 0.0
2015-Feb-23 15:19N 54°51' W 005°48'1316.7
2015-Feb-23 14:33N 54°57' W 005°28'1514.7
2015-Feb-23 13:32N 54°59' W 005°02'1 1.1
2015-Feb-23 12:33N 54°58' W 005°01'1111.0
2015-Feb-23 11:34N 54°58' W 005°20'1816.6
2015-Feb-23 10:30N 54°51' W 005°48'0 0.0
2015-Feb-23 09:33N 54°51' W 005°48'  
Track history (hours):
 
Tides and Currents Weather Stations Pressure Air Temp Water Temp Dewpoint Dewpoint Depression Visibility Wind Speed Wind Dir Waves Ship Positions

European Causeway

Operator: P & O Irish Sea

Last reported at 2015-Mar-05 09:32 UTC. Time now 2015-Mar-05 10:30 UTC.
Position N 54°58' W 005°01'.

Length 165 m; draft 5.5 m.

Type: Ship (hazmat cat A). MMSI: 311027000.

Date/timePositionNaut miles runAvg speedWind from/ knotsBaromVisibWave heightAir tempDewpointWater temp
2015-Mar-05 09:32N 54°58' W 005°01'1111.4
2015-Mar-05 08:33N 54°58' W 005°20'1716.7
2015-Mar-05 07:31N 54°51' W 005°48'0 0.0
2015-Mar-05 06:34N 54°51' W 005°48'6 6.3
2015-Mar-05 05:33N 54°54' W 005°38'1817.8
2015-Mar-05 04:31N 55°02' W 005°09'6 5.8
2015-Mar-05 03:27N 54°58' W 005°01'0 0.0
2015-Mar-05 02:30N 54°58' W 005°01'5 5.2
2015-Mar-05 01:29N 55°02' W 005°07'1718.0
2015-Mar-05 00:33N 54°55' W 005°34'9 8.9
2015-Mar-04 23:33N 54°51' W 005°48'0 0.0
2015-Mar-04 22:33N 54°51' W 005°48'4 4.3
2015-Mar-04 21:33N 54°53' W 005°42'1817.5
2015-Mar-04 20:31N 55°01' W 005°13'8 7.5
2015-Mar-04 19:30N 54°58' W 005°01'0 0.0
2015-Mar-04 18:33N 54°58' W 005°01'1111.3
2015-Mar-04 17:33N 54°58' W 005°21'1717.4
2015-Mar-04 16:33N 54°51' W 005°48'0 0.1
2015-Mar-04 15:33N 54°51' W 005°48'1514.7
2015-Mar-04 14:34N 54°58' W 005°26'1414.0
2015-Mar-04 13:33N 54°58' W 005°01'0 0.2
2015-Mar-04 12:31N 54°58' W 005°01'1212.4
2015-Mar-04 11:33N 54°58' W 005°22'1614.0
2015-Mar-04 10:23N 54°51' W 005°48'0 0.0
2015-Mar-04 09:33N 54°51' W 005°48'1514.7
2015-Mar-04 08:33N 54°58' W 005°25'1413.5
2015-Mar-04 07:33N 54°58' W 005°02'0 0.5
2015-Mar-04 06:32N 54°58' W 005°01'5 5.0
2015-Mar-04 05:27N 55°01' W 005°08'1617.8
2015-Mar-04 04:33N 54°55' W 005°33'9 9.1
2015-Mar-04 03:32N 54°51' W 005°48'0 0.0
2015-Mar-04 02:33N 54°51' W 005°48'3 3.2
2015-Mar-04 01:32N 54°53' W 005°43'1717.4
2015-Mar-04 00:33N 55°00' W 005°17'9 9.4
2015-Mar-03 23:33N 54°58' W 005°01'0 0.0
2015-Mar-03 22:33N 54°58' W 005°01'6 5.3
2015-Mar-03 21:20N 55°01' W 005°10'1418.0
2015-Mar-03 20:33N 54°55' W 005°32'10 9.6
2015-Mar-03 19:32N 54°51' W 005°48'0 0.0
2015-Mar-03 18:34N 54°51' W 005°48'1313.5
2015-Mar-03 17:33N 54°58' W 005°28'1514.7
2015-Mar-03 16:33N 54°58' W 005°02'1 0.7
2015-Mar-03 15:34N 54°58' W 005°01'1010.2
2015-Mar-03 14:34N 54°59' W 005°19'1817.9
2015-Mar-03 13:32N 54°51' W 005°48'0 0.0
2015-Mar-03 12:33N 54°51' W 005°48'1312.8
2015-Mar-03 11:34N 54°57' W 005°28'1514.5
2015-Mar-03 10:33N 54°59' W 005°03'2 1.8
2015-Mar-03 09:33N 54°58' W 005°01'8 8.2
2015-Mar-03 08:33N 54°60' W 005°15'2119.0
2015-Mar-03 07:28N 54°52' W 005°47'1 0.8
2015-Mar-03 06:33N 54°51' W 005°48'7 7.1
2015-Mar-03 05:33N 54°55' W 005°37'1817.0
2015-Mar-03 04:31N 55°02' W 005°09'6 6.4
2015-Mar-03 03:33N 54°58' W 005°01'0 0.0
2015-Mar-03 02:33N 54°58' W 005°01'5 4.8
2015-Mar-03 01:26N 55°01' W 005°08'1617.8
2015-Mar-03 00:33N 54°55' W 005°32'10 9.7
2015-Mar-02 23:33N 54°51' W 005°48'0 0.0
2015-Mar-02 22:32N 54°51' W 005°48'4 4.1
2015-Mar-02 21:33N 54°53' W 005°42'1817.5
2015-Mar-02 20:33N 55°00' W 005°15'8 6.9
2015-Mar-02 19:21N 54°58' W 005°01'0 0.3
2015-Mar-02 18:30N 54°58' W 005°01'1212.8
2015-Mar-02 17:32N 54°57' W 005°23'1614.1
2015-Mar-02 16:25N 54°51' W 005°48'0 0.0
2015-Mar-02 15:32N 54°51' W 005°48'1313.2
2015-Mar-02 14:34N 54°57' W 005°28'1514.3
2015-Mar-02 13:33N 54°59' W 005°03'2 2.3
2015-Mar-02 12:33N 54°58' W 005°01'1010.3
2015-Mar-02 11:32N 54°58' W 005°19'1817.8
2015-Mar-02 10:33N 54°52' W 005°47'1 1.0
2015-Mar-02 09:33N 54°51' W 005°48'1211.5
2015-Mar-02 08:34N 54°56' W 005°30'1615.0
2015-Mar-02 07:30N 54°59' W 005°03'2 2.2
2015-Mar-02 06:33N 54°58' W 005°01'5 4.8
2015-Mar-02 05:30N 55°02' W 005°07'1717.9
2015-Mar-02 04:32N 54°55' W 005°35'9 8.7
2015-Mar-02 03:33N 54°51' W 005°48'0 0.0
2015-Mar-02 02:33N 54°51' W 005°48'0 0.0
2015-Mar-02 01:33N 54°51' W 005°48'2 2.3
2015-Mar-02 00:33N 54°52' W 005°45'1818.2
2015-Mar-01 23:33N 55°00' W 005°16'9 9.3
2015-Mar-01 22:33N 54°58' W 005°01'6 5.2
2015-Mar-01 21:25N 55°02' W 005°09'1619.0
2015-Mar-01 20:33N 54°54' W 005°35'8 6.8
2015-Mar-01 19:19N 54°51' W 005°48'0 0.0
2015-Mar-01 18:32N 54°51' W 005°48'1313.9
2015-Mar-01 17:34N 54°57' W 005°27'1414.1
2015-Mar-01 16:32N 54°59' W 005°03'1 1.4
2015-Mar-01 15:34N 54°58' W 005°01'5 5.2
2015-Mar-01 14:32N 55°02' W 005°08'1817.8
2015-Mar-01 13:31N 54°54' W 005°36'8 7.8
2015-Mar-01 12:33N 54°51' W 005°48'0 0.0
2015-Mar-01 11:33N 54°51' W 005°48'0 0.0
2015-Mar-01 10:33N 54°51' W 005°48'0 0.0
2015-Mar-01 09:33N 54°51' W 005°48'1212.4
2015-Mar-01 08:34N 54°57' W 005°29'1514.6
2015-Mar-01 07:31N 54°59' W 005°03'2 1.8
2015-Mar-01 06:31N 54°58' W 005°01'0 0.0
2015-Mar-01 05:25N 54°58' W 005°01'0 0.0
2015-Mar-01 04:25N 54°58' W 005°01'0 0.0
2015-Mar-01 02:13N 54°58' W 005°01'0 0.0
2015-Mar-01 00:31N 54°58' W 005°01'0 0.0
2015-Feb-28 23:22N 54°58' W 005°01'0 0.0
2015-Feb-28 22:15N 54°58' W 005°01'5 6.9
2015-Feb-28 21:29N 55°02' W 005°07'2020.9
2015-Feb-28 20:33N 54°53' W 005°38'6 6.0
2015-Feb-28 19:33N 54°51' W 005°48'0 0.0
2015-Feb-28 18:33N 54°51' W 005°48'1413.8
2015-Feb-28 17:33N 54°58' W 005°27'1514.1
2015-Feb-28 16:31N 54°58' W 005°02'1 1.0
2015-Feb-28 15:33N 54°58' W 005°01'1010.1
2015-Feb-28 14:33N 54°58' W 005°19'1817.7
2015-Feb-28 13:31N 54°51' W 005°48'0 0.2
2015-Feb-28 12:33N 54°51' W 005°48'1312.7
2015-Feb-28 11:33N 54°57' W 005°29'1514.8
2015-Feb-28 10:31N 54°59' W 005°02'1 1.3
2015-Feb-28 09:33N 54°58' W 005°01'1010.3
2015-Feb-28 08:33N 54°60' W 005°18'1917.7
2015-Feb-28 07:30N 54°52' W 005°48'1 0.8
2015-Feb-28 06:33N 54°51' W 005°48'4 4.2
2015-Feb-28 05:33N 54°53' W 005°42'1817.8
2015-Feb-28 04:32N 55°01' W 005°13'8 5.9
2015-Feb-28 03:13N 54°58' W 005°01'0 0.0
2015-Feb-28 02:22N 54°58' W 005°01'5 5.8
2015-Feb-28 01:32N 55°02' W 005°06'1717.6
2015-Feb-28 00:33N 54°55' W 005°34'9 8.9
2015-Feb-27 23:33N 54°51' W 005°48'0 0.0
2015-Feb-27 22:32N 54°51' W 005°48'5 5.6
2015-Feb-27 21:34N 54°54' W 005°40'1717.2
2015-Feb-27 20:33N 55°01' W 005°13'8 7.2
2015-Feb-27 19:30N 54°58' W 005°01'0 0.0
2015-Feb-27 18:33N 54°58' W 005°01'1110.7
2015-Feb-27 17:33N 54°58' W 005°20'1817.4
2015-Feb-27 16:32N 54°51' W 005°48'0 0.2
2015-Feb-27 15:33N 54°51' W 005°48'1515.0
2015-Feb-27 14:33N 54°58' W 005°25'1413.8
2015-Feb-27 13:33N 54°58' W 005°01'0 0.0
2015-Feb-27 12:33N 54°58' W 005°01'1110.8
2015-Feb-27 11:33N 54°58' W 005°20'1817.4
2015-Feb-27 10:33N 54°51' W 005°48'0 0.1
2015-Feb-27 09:33N 54°51' W 005°48'1313.0
2015-Feb-27 08:33N 54°57' W 005°28'1514.4
2015-Feb-27 07:31N 54°59' W 005°02'1 1.3
2015-Feb-27 06:33N 54°58' W 005°01'5 4.9
2015-Feb-27 05:28N 55°02' W 005°08'1617.4
2015-Feb-27 04:33N 54°55' W 005°33'10 9.6
2015-Feb-27 03:33N 54°51' W 005°48'0 0.0
2015-Feb-27 02:33N 54°51' W 005°48'5 5.0
2015-Feb-27 01:31N 54°54' W 005°40'1717.4
2015-Feb-27 00:33N 55°01' W 005°14'8 8.1
2015-Feb-26 23:33N 54°58' W 005°01'0 0.0
2015-Feb-26 22:32N 54°58' W 005°01'5 5.0
2015-Feb-26 21:29N 55°02' W 005°07'1818.3
2015-Feb-26 20:32N 54°54' W 005°35'8 7.4
2015-Feb-26 19:26N 54°51' W 005°48'0 0.0
2015-Feb-26 18:33N 54°51' W 005°48'1514.7
2015-Feb-26 17:32N 54°58' W 005°25'1414.1
2015-Feb-26 16:33N 54°58' W 005°01'0 0.2
2015-Feb-26 15:33N 54°58' W 005°01'1111.4
2015-Feb-26 14:33N 54°58' W 005°20'1714.8
2015-Feb-26 13:24N 54°51' W 005°48'0 0.0
2015-Feb-26 12:33N 54°51' W 005°48'1414.2
2015-Feb-26 11:33N 54°58' W 005°26'1413.8
2015-Feb-26 10:31N 54°58' W 005°01'0 0.3
2015-Feb-26 09:31N 54°58' W 005°01'1212.1
2015-Feb-26 08:33N 54°58' W 005°21'1716.8
2015-Feb-26 07:33N 54°51' W 005°48'0 0.1
2015-Feb-26 06:32N 54°51' W 005°48'8 7.6
2015-Feb-26 05:33N 54°55' W 005°37'1717.3
2015-Feb-26 04:33N 55°02' W 005°09'6 6.1
2015-Feb-26 03:32N 54°58' W 005°01'0 0.0
2015-Feb-26 02:31N 54°58' W 005°01'5 4.9
2015-Feb-26 01:24N 55°01' W 005°08'1618.5
2015-Feb-26 00:32N 54°55' W 005°33'9 9.4
2015-Feb-25 23:33N 54°51' W 005°48'0 0.0
2015-Feb-25 22:32N 54°51' W 005°48'4 3.9
2015-Feb-25 21:33N 54°53' W 005°43'2410.5
2015-Feb-25 19:13N 54°58' W 005°01'0 0.0
2015-Feb-25 18:32N 54°58' W 005°01'1111.4
2015-Feb-25 17:33N 54°58' W 005°21'1716.9
2015-Feb-25 16:32N 54°51' W 005°48'0 0.1
2015-Feb-25 15:32N 54°51' W 005°48'1212.6
2015-Feb-25 14:33N 54°57' W 005°29'1515.4
2015-Feb-25 13:33N 54°59' W 005°03'2 1.6
2015-Feb-25 12:33N 54°58' W 005°01'1111.0
2015-Feb-25 11:33N 54°58' W 005°20'1817.5
2015-Feb-25 10:33N 54°51' W 005°48'0 0.1
2015-Feb-25 09:33N 54°51' W 005°48'1515.5
2015-Feb-25 08:33N 54°58' W 005°24'1411.2
2015-Feb-25 07:21N 54°58' W 005°01'0 0.0
2015-Feb-25 06:33N 54°58' W 005°01'5 5.0
2015-Feb-25 05:33N 55°02' W 005°07'1918.1
2015-Feb-25 04:30N 54°54' W 005°37'7 7.5
2015-Feb-25 03:33N 54°51' W 005°48'0 0.0
2015-Feb-25 02:33N 54°51' W 005°48'8 7.6
2015-Feb-25 01:31N 54°55' W 005°36'1717.6
2015-Feb-25 00:34N 55°02' W 005°09'6 6.2
2015-Feb-24 23:32N 54°58' W 005°01'0 0.0
2015-Feb-24 22:30N 54°58' W 005°01'6 6.3
2015-Feb-24 21:33N 55°01' W 005°09'1918.3
2015-Feb-24 20:33N 54°54' W 005°38'6 3.1
2015-Feb-24 18:33N 54°51' W 005°48'1514.7
2015-Feb-24 17:32N 54°58' W 005°25'1413.5
2015-Feb-24 16:31N 54°58' W 005°01'0 0.1
2015-Feb-24 15:26N 54°58' W 005°01'1112.2
2015-Feb-24 14:32N 54°58' W 005°20'1717.9
2015-Feb-24 13:33N 54°51' W 005°48'0 0.1
2015-Feb-24 12:33N 54°51' W 005°48'1514.9
2015-Feb-24 11:33N 54°58' W 005°25'1413.4
2015-Feb-24 10:31N 54°58' W 005°01'0 0.0
2015-Feb-24 09:32N 54°58' W 005°01'1111.0
2015-Feb-24 08:33N 54°59' W 005°20'1814.7
2015-Feb-24 07:20N 54°51' W 005°48'0 0.0
2015-Feb-24 06:17N 54°51' W 005°48'1013.0
2015-Feb-24 05:33N 54°56' W 005°34'1816.0
2015-Feb-24 04:26N 54°59' W 005°03'2 2.1
2015-Feb-24 03:29N 54°58' W 005°01'0 0.0
2015-Feb-24 02:33N 54°58' W 005°01'6 6.3
2015-Feb-24 01:34N 55°02' W 005°09'1616.1
2015-Feb-24 00:33N 54°54' W 005°34'9 8.9
2015-Feb-23 23:33N 54°51' W 005°48'0 0.0
2015-Feb-23 22:30N 54°51' W 005°48'5 5.2
2015-Feb-23 21:27N 54°54' W 005°40'1819.5
2015-Feb-23 20:33N 55°01' W 005°12'7 6.8
2015-Feb-23 19:29N 54°58' W 005°01'0 0.2
2015-Feb-23 18:33N 54°58' W 005°01'1312.6
2015-Feb-23 17:33N 54°58' W 005°23'1615.2
2015-Feb-23 16:31N 54°51' W 005°48'0 0.0
2015-Feb-23 15:19N 54°51' W 005°48'1316.7
2015-Feb-23 14:33N 54°57' W 005°28'1514.7
2015-Feb-23 13:32N 54°59' W 005°02'1 1.1
2015-Feb-23 12:33N 54°58' W 005°01'1111.0
2015-Feb-23 11:34N 54°58' W 005°20'1816.6
2015-Feb-23 10:30N 54°51' W 005°48'0 0.0
2015-Feb-23 09:33N 54°51' W 005°48'  

Dump ship's entire track history